sensor_id;sensor_type;location;lat;lon;timestamp;P1;durP1;ratioP1;P2;durP2;ratioP2
37609;SDS011;23457;51.966;8.230;2024-02-21T00:00:38;50.63;;;19.67;;
37609;SDS011;23457;51.966;8.230;2024-02-21T00:03:05;40.97;;;18.75;;
37609;SDS011;23457;51.966;8.230;2024-02-21T00:05:32;45.28;;;19.63;;
37609;SDS011;23457;51.966;8.230;2024-02-21T00:08:02;46.70;;;19.77;;
37609;SDS011;23457;51.966;8.230;2024-02-21T00:10:32;38.60;;;18.33;;
37609;SDS011;23457;51.966;8.230;2024-02-21T00:12:59;44.88;;;19.58;;
37609;SDS011;23457;51.966;8.230;2024-02-21T00:15:26;44.33;;;19.00;;
37609;SDS011;23457;51.966;8.230;2024-02-21T00:17:53;47.20;;;20.25;;
37609;SDS011;23457;51.966;8.230;2024-02-21T00:20:19;38.67;;;19.83;;
37609;SDS011;23457;51.966;8.230;2024-02-21T00:22:46;45.75;;;19.50;;
37609;SDS011;23457;51.966;8.230;2024-02-21T00:25:13;49.85;;;20.58;;
37609;SDS011;23457;51.966;8.230;2024-02-21T00:27:40;40.47;;;18.55;;
37609;SDS011;23457;51.966;8.230;2024-02-21T00:30:06;42.47;;;19.25;;
37609;SDS011;23457;51.966;8.230;2024-02-21T00:32:33;42.40;;;19.85;;
37609;SDS011;23457;51.966;8.230;2024-02-21T00:35:01;41.83;;;19.35;;
37609;SDS011;23457;51.966;8.230;2024-02-21T00:37:27;44.33;;;19.88;;
37609;SDS011;23457;51.966;8.230;2024-02-21T00:39:54;45.78;;;19.77;;
37609;SDS011;23457;51.966;8.230;2024-02-21T00:42:21;49.83;;;19.38;;
37609;SDS011;23457;51.966;8.230;2024-02-21T00:44:47;43.08;;;19.00;;
37609;SDS011;23457;51.966;8.230;2024-02-21T00:47:14;46.60;;;20.02;;
37609;SDS011;23457;51.966;8.230;2024-02-21T00:49:41;43.05;;;18.42;;
37609;SDS011;23457;51.966;8.230;2024-02-21T00:52:07;48.65;;;18.90;;
37609;SDS011;23457;51.966;8.230;2024-02-21T00:54:34;37.95;;;17.52;;
37609;SDS011;23457;51.966;8.230;2024-02-21T00:57:15;39.88;;;18.45;;
37609;SDS011;23457;51.966;8.230;2024-02-21T00:59:42;41.55;;;18.27;;
37609;SDS011;23457;51.966;8.230;2024-02-21T01:02:09;42.95;;;18.92;;
37609;SDS011;23457;51.966;8.230;2024-02-21T01:04:35;36.63;;;18.60;;
37609;SDS011;23457;51.966;8.230;2024-02-21T01:07:03;40.50;;;17.13;;
37609;SDS011;23457;51.966;8.230;2024-02-21T01:09:29;41.60;;;18.50;;
37609;SDS011;23457;51.966;8.230;2024-02-21T01:11:56;41.65;;;18.30;;
37609;SDS011;23457;51.966;8.230;2024-02-21T01:14:23;38.60;;;18.98;;
37609;SDS011;23457;51.966;8.230;2024-02-21T01:16:50;47.33;;;17.85;;
37609;SDS011;23457;51.966;8.230;2024-02-21T01:19:16;40.58;;;16.70;;
37609;SDS011;23457;51.966;8.230;2024-02-21T01:21:43;43.33;;;19.33;;
37609;SDS011;23457;51.966;8.230;2024-02-21T01:24:10;43.30;;;18.30;;
37609;SDS011;23457;51.966;8.230;2024-02-21T01:26:36;43.83;;;18.55;;
37609;SDS011;23457;51.966;8.230;2024-02-21T01:29:03;41.17;;;18.25;;
37609;SDS011;23457;51.966;8.230;2024-02-21T01:31:30;39.03;;;17.10;;
37609;SDS011;23457;51.966;8.230;2024-02-21T01:33:57;36.53;;;18.13;;
37609;SDS011;23457;51.966;8.230;2024-02-21T01:36:24;44.75;;;18.63;;
37609;SDS011;23457;51.966;8.230;2024-02-21T01:38:51;42.35;;;18.85;;
37609;SDS011;23457;51.966;8.230;2024-02-21T01:41:17;48.42;;;18.83;;
37609;SDS011;23457;51.966;8.230;2024-02-21T01:43:44;32.40;;;17.30;;
37609;SDS011;23457;51.966;8.230;2024-02-21T01:46:11;43.13;;;18.77;;
37609;SDS011;23457;51.966;8.230;2024-02-21T01:48:38;46.75;;;18.98;;
37609;SDS011;23457;51.966;8.230;2024-02-21T01:51:05;47.80;;;19.20;;
37609;SDS011;23457;51.966;8.230;2024-02-21T01:53:36;39.35;;;19.90;;
37609;SDS011;23457;51.966;8.230;2024-02-21T01:56:06;41.92;;;18.10;;
37609;SDS011;23457;51.966;8.230;2024-02-21T01:58:35;45.80;;;19.08;;
37609;SDS011;23457;51.966;8.230;2024-02-21T02:01:03;43.13;;;20.60;;
37609;SDS011;23457;51.966;8.230;2024-02-21T02:03:30;42.65;;;19.30;;
37609;SDS011;23457;51.966;8.230;2024-02-21T02:05:57;42.22;;;20.15;;
37609;SDS011;23457;51.966;8.230;2024-02-21T02:08:24;40.33;;;18.90;;
37609;SDS011;23457;51.966;8.230;2024-02-21T02:10:51;47.88;;;19.35;;
37609;SDS011;23457;51.966;8.230;2024-02-21T02:13:18;42.08;;;19.65;;
37609;SDS011;23457;51.966;8.230;2024-02-21T02:15:46;43.85;;;19.30;;
37609;SDS011;23457;51.966;8.230;2024-02-21T02:18:15;49.50;;;20.08;;
37609;SDS011;23457;51.966;8.230;2024-02-21T02:20:43;40.37;;;19.23;;
37609;SDS011;23457;51.966;8.230;2024-02-21T02:25:47;48.45;;;19.88;;
37609;SDS011;23457;51.966;8.230;2024-02-21T02:28:18;44.97;;;21.23;;
37609;SDS011;23457;51.966;8.230;2024-02-21T02:30:46;45.90;;;21.05;;
37609;SDS011;23457;51.966;8.230;2024-02-21T02:33:13;40.20;;;19.52;;
37609;SDS011;23457;51.966;8.230;2024-02-21T02:35:40;45.97;;;20.05;;
37609;SDS011;23457;51.966;8.230;2024-02-21T02:38:07;43.65;;;19.45;;
37609;SDS011;23457;51.966;8.230;2024-02-21T02:40:34;48.25;;;20.90;;
37609;SDS011;23457;51.966;8.230;2024-02-21T02:43:01;44.75;;;20.10;;
37609;SDS011;23457;51.966;8.230;2024-02-21T02:45:28;48.00;;;20.10;;
37609;SDS011;23457;51.966;8.230;2024-02-21T02:47:55;39.70;;;19.67;;
37609;SDS011;23457;51.966;8.230;2024-02-21T02:50:24;41.58;;;18.45;;
37609;SDS011;23457;51.966;8.230;2024-02-21T02:52:50;43.10;;;19.30;;
37609;SDS011;23457;51.966;8.230;2024-02-21T02:55:17;44.45;;;19.77;;
37609;SDS011;23457;51.966;8.230;2024-02-21T02:57:44;41.45;;;20.33;;
37609;SDS011;23457;51.966;8.230;2024-02-21T03:00:11;42.10;;;19.45;;
37609;SDS011;23457;51.966;8.230;2024-02-21T03:02:40;46.22;;;20.75;;
37609;SDS011;23457;51.966;8.230;2024-02-21T03:05:11;42.80;;;18.60;;
37609;SDS011;23457;51.966;8.230;2024-02-21T03:07:40;51.95;;;19.45;;
37609;SDS011;23457;51.966;8.230;2024-02-21T03:10:07;41.72;;;17.75;;
37609;SDS011;23457;51.966;8.230;2024-02-21T03:12:35;38.13;;;17.85;;
37609;SDS011;23457;51.966;8.230;2024-02-21T03:15:02;39.95;;;18.15;;
37609;SDS011;23457;51.966;8.230;2024-02-21T03:17:29;43.13;;;17.42;;
37609;SDS011;23457;51.966;8.230;2024-02-21T03:19:56;39.63;;;17.80;;
37609;SDS011;23457;51.966;8.230;2024-02-21T03:22:23;40.50;;;18.35;;
37609;SDS011;23457;51.966;8.230;2024-02-21T03:24:49;41.05;;;17.40;;
37609;SDS011;23457;51.966;8.230;2024-02-21T03:27:16;40.38;;;17.77;;
37609;SDS011;23457;51.966;8.230;2024-02-21T03:29:43;44.20;;;18.20;;
37609;SDS011;23457;51.966;8.230;2024-02-21T03:32:10;41.92;;;17.95;;
37609;SDS011;23457;51.966;8.230;2024-02-21T03:34:36;43.95;;;17.15;;
37609;SDS011;23457;51.966;8.230;2024-02-21T03:37:03;38.45;;;17.52;;
37609;SDS011;23457;51.966;8.230;2024-02-21T03:39:33;37.90;;;16.95;;
37609;SDS011;23457;51.966;8.230;2024-02-21T03:42:00;37.17;;;16.45;;
37609;SDS011;23457;51.966;8.230;2024-02-21T03:44:31;34.90;;;16.08;;
37609;SDS011;23457;51.966;8.230;2024-02-21T03:47:01;33.95;;;16.33;;
37609;SDS011;23457;51.966;8.230;2024-02-21T03:51:55;34.70;;;15.65;;
37609;SDS011;23457;51.966;8.230;2024-02-21T03:54:22;41.40;;;15.98;;
37609;SDS011;23457;51.966;8.230;2024-02-21T03:56:49;39.70;;;15.82;;
37609;SDS011;23457;51.966;8.230;2024-02-21T03:59:16;35.60;;;15.82;;
37609;SDS011;23457;51.966;8.230;2024-02-21T04:01:42;41.83;;;15.77;;
37609;SDS011;23457;51.966;8.230;2024-02-21T04:04:10;41.45;;;15.32;;
37609;SDS011;23457;51.966;8.230;2024-02-21T04:06:45;35.58;;;15.07;;
37609;SDS011;23457;51.966;8.230;2024-02-21T04:09:13;32.22;;;15.18;;
37609;SDS011;23457;51.966;8.230;2024-02-21T04:11:39;32.90;;;14.70;;
37609;SDS011;23457;51.966;8.230;2024-02-21T04:14:06;34.60;;;15.68;;
37609;SDS011;23457;51.966;8.230;2024-02-21T04:16:34;35.45;;;16.45;;
37609;SDS011;23457;51.966;8.230;2024-02-21T04:19:01;32.28;;;15.13;;
37609;SDS011;23457;51.966;8.230;2024-02-21T04:21:28;33.47;;;15.18;;
37609;SDS011;23457;51.966;8.230;2024-02-21T04:23:55;35.22;;;15.85;;
37609;SDS011;23457;51.966;8.230;2024-02-21T04:26:22;32.90;;;15.02;;
37609;SDS011;23457;51.966;8.230;2024-02-21T04:28:48;27.02;;;14.60;;
37609;SDS011;23457;51.966;8.230;2024-02-21T04:31:15;33.35;;;14.38;;
37609;SDS011;23457;51.966;8.230;2024-02-21T04:33:42;37.33;;;15.38;;
37609;SDS011;23457;51.966;8.230;2024-02-21T04:36:08;29.98;;;14.65;;
37609;SDS011;23457;51.966;8.230;2024-02-21T04:38:35;35.85;;;15.35;;
37609;SDS011;23457;51.966;8.230;2024-02-21T04:41:02;34.20;;;14.90;;
37609;SDS011;23457;51.966;8.230;2024-02-21T04:43:29;41.10;;;15.48;;
37609;SDS011;23457;51.966;8.230;2024-02-21T04:45:55;32.42;;;14.82;;
37609;SDS011;23457;51.966;8.230;2024-02-21T04:48:22;30.38;;;14.32;;
37609;SDS011;23457;51.966;8.230;2024-02-21T04:50:49;33.33;;;15.13;;
37609;SDS011;23457;51.966;8.230;2024-02-21T04:53:15;32.75;;;14.93;;
37609;SDS011;23457;51.966;8.230;2024-02-21T04:55:42;31.95;;;14.95;;
37609;SDS011;23457;51.966;8.230;2024-02-21T04:58:09;37.75;;;15.82;;
37609;SDS011;23457;51.966;8.230;2024-02-21T05:00:36;38.08;;;15.32;;
37609;SDS011;23457;51.966;8.230;2024-02-21T05:03:02;38.42;;;16.23;;
37609;SDS011;23457;51.966;8.230;2024-02-21T05:05:29;40.05;;;15.82;;
37609;SDS011;23457;51.966;8.230;2024-02-21T05:07:56;34.20;;;15.27;;
37609;SDS011;23457;51.966;8.230;2024-02-21T05:10:23;36.30;;;15.05;;
37609;SDS011;23457;51.966;8.230;2024-02-21T05:12:50;38.20;;;15.57;;
37609;SDS011;23457;51.966;8.230;2024-02-21T05:15:16;38.22;;;16.20;;
37609;SDS011;23457;51.966;8.230;2024-02-21T05:17:43;33.92;;;16.20;;
37609;SDS011;23457;51.966;8.230;2024-02-21T05:20:10;36.80;;;17.33;;
37609;SDS011;23457;51.966;8.230;2024-02-21T05:22:37;44.58;;;17.92;;
37609;SDS011;23457;51.966;8.230;2024-02-21T05:25:04;43.22;;;19.65;;
37609;SDS011;23457;51.966;8.230;2024-02-21T05:27:31;44.42;;;18.02;;
37609;SDS011;23457;51.966;8.230;2024-02-21T05:29:57;40.75;;;18.50;;
37609;SDS011;23457;51.966;8.230;2024-02-21T05:32:25;36.33;;;17.60;;
37609;SDS011;23457;51.966;8.230;2024-02-21T05:34:52;36.70;;;18.75;;
37609;SDS011;23457;51.966;8.230;2024-02-21T05:37:19;45.03;;;17.88;;
37609;SDS011;23457;51.966;8.230;2024-02-21T05:39:46;37.90;;;17.83;;
37609;SDS011;23457;51.966;8.230;2024-02-21T05:42:12;36.58;;;17.17;;
37609;SDS011;23457;51.966;8.230;2024-02-21T05:44:39;36.83;;;18.10;;
37609;SDS011;23457;51.966;8.230;2024-02-21T05:47:06;38.50;;;17.45;;
37609;SDS011;23457;51.966;8.230;2024-02-21T05:49:36;38.85;;;16.85;;
37609;SDS011;23457;51.966;8.230;2024-02-21T05:52:04;40.65;;;17.88;;
37609;SDS011;23457;51.966;8.230;2024-02-21T05:54:32;39.40;;;17.13;;
37609;SDS011;23457;51.966;8.230;2024-02-21T05:56:59;45.08;;;17.50;;
37609;SDS011;23457;51.966;8.230;2024-02-21T05:59:26;39.08;;;18.20;;
37609;SDS011;23457;51.966;8.230;2024-02-21T06:01:58;48.60;;;18.70;;
37609;SDS011;23457;51.966;8.230;2024-02-21T06:04:26;36.53;;;16.77;;
37609;SDS011;23457;51.966;8.230;2024-02-21T06:06:53;32.15;;;16.45;;
37609;SDS011;23457;51.966;8.230;2024-02-21T06:09:20;39.50;;;15.88;;
37609;SDS011;23457;51.966;8.230;2024-02-21T06:11:46;38.08;;;16.92;;
37609;SDS011;23457;51.966;8.230;2024-02-21T06:14:15;31.57;;;15.33;;
37609;SDS011;23457;51.966;8.230;2024-02-21T06:16:43;38.55;;;16.05;;
37609;SDS011;23457;51.966;8.230;2024-02-21T06:19:10;36.35;;;15.98;;
37609;SDS011;23457;51.966;8.230;2024-02-21T06:21:37;32.30;;;16.33;;
37609;SDS011;23457;51.966;8.230;2024-02-21T06:24:04;36.47;;;15.75;;
37609;SDS011;23457;51.966;8.230;2024-02-21T06:26:31;29.33;;;15.30;;
37609;SDS011;23457;51.966;8.230;2024-02-21T06:28:57;39.55;;;15.82;;
37609;SDS011;23457;51.966;8.230;2024-02-21T06:31:27;36.25;;;14.38;;
37609;SDS011;23457;51.966;8.230;2024-02-21T06:33:54;29.33;;;14.00;;
37609;SDS011;23457;51.966;8.230;2024-02-21T06:36:21;29.33;;;13.95;;
37609;SDS011;23457;51.966;8.230;2024-02-21T06:38:48;30.23;;;14.35;;
37609;SDS011;23457;51.966;8.230;2024-02-21T06:41:15;34.65;;;13.93;;
37609;SDS011;23457;51.966;8.230;2024-02-21T06:43:46;27.52;;;13.23;;
37609;SDS011;23457;51.966;8.230;2024-02-21T06:46:26;32.83;;;12.98;;
37609;SDS011;23457;51.966;8.230;2024-02-21T06:48:55;28.98;;;13.07;;
37609;SDS011;23457;51.966;8.230;2024-02-21T06:51:23;29.60;;;12.75;;
37609;SDS011;23457;51.966;8.230;2024-02-21T06:53:51;28.65;;;13.02;;
37609;SDS011;23457;51.966;8.230;2024-02-21T06:56:18;30.40;;;12.15;;
37609;SDS011;23457;51.966;8.230;2024-02-21T06:58:45;27.67;;;12.63;;
37609;SDS011;23457;51.966;8.230;2024-02-21T07:01:12;33.28;;;12.23;;
37609;SDS011;23457;51.966;8.230;2024-02-21T07:03:39;29.15;;;11.68;;
37609;SDS011;23457;51.966;8.230;2024-02-21T07:06:06;22.73;;;11.18;;
37609;SDS011;23457;51.966;8.230;2024-02-21T07:08:33;24.58;;;10.73;;
37609;SDS011;23457;51.966;8.230;2024-02-21T07:11:00;29.20;;;10.60;;
37609;SDS011;23457;51.966;8.230;2024-02-21T07:13:26;28.80;;;11.13;;
37609;SDS011;23457;51.966;8.230;2024-02-21T07:15:53;29.40;;;11.05;;
37609;SDS011;23457;51.966;8.230;2024-02-21T07:18:20;24.25;;;9.80;;
37609;SDS011;23457;51.966;8.230;2024-02-21T07:20:47;25.13;;;10.25;;
37609;SDS011;23457;51.966;8.230;2024-02-21T07:23:13;26.63;;;9.90;;
37609;SDS011;23457;51.966;8.230;2024-02-21T07:25:40;25.38;;;10.45;;
37609;SDS011;23457;51.966;8.230;2024-02-21T07:28:07;22.52;;;9.57;;
37609;SDS011;23457;51.966;8.230;2024-02-21T07:30:33;23.90;;;9.85;;
37609;SDS011;23457;51.966;8.230;2024-02-21T07:33:00;23.40;;;9.13;;
37609;SDS011;23457;51.966;8.230;2024-02-21T07:35:27;23.33;;;8.32;;
37609;SDS011;23457;51.966;8.230;2024-02-21T07:37:54;26.00;;;9.82;;
37609;SDS011;23457;51.966;8.230;2024-02-21T07:40:20;25.60;;;9.98;;
37609;SDS011;23457;51.966;8.230;2024-02-21T07:42:47;22.75;;;8.00;;
37609;SDS011;23457;51.966;8.230;2024-02-21T07:45:17;29.27;;;9.52;;
37609;SDS011;23457;51.966;8.230;2024-02-21T07:47:50;22.33;;;8.27;;
37609;SDS011;23457;51.966;8.230;2024-02-21T07:50:17;25.02;;;9.30;;
37609;SDS011;23457;51.966;8.230;2024-02-21T07:52:44;19.30;;;7.88;;
37609;SDS011;23457;51.966;8.230;2024-02-21T07:55:10;17.20;;;7.20;;
37609;SDS011;23457;51.966;8.230;2024-02-21T07:57:37;15.27;;;7.43;;
37609;SDS011;23457;51.966;8.230;2024-02-21T08:00:04;21.85;;;7.45;;
37609;SDS011;23457;51.966;8.230;2024-02-21T08:02:37;18.38;;;6.55;;
37609;SDS011;23457;51.966;8.230;2024-02-21T08:05:04;18.38;;;7.55;;
37609;SDS011;23457;51.966;8.230;2024-02-21T08:07:31;21.27;;;8.05;;
37609;SDS011;23457;51.966;8.230;2024-02-21T08:09:58;22.00;;;7.88;;
37609;SDS011;23457;51.966;8.230;2024-02-21T08:12:25;23.13;;;7.40;;
37609;SDS011;23457;51.966;8.230;2024-02-21T08:14:51;15.38;;;7.07;;
37609;SDS011;23457;51.966;8.230;2024-02-21T08:17:18;20.35;;;6.57;;
37609;SDS011;23457;51.966;8.230;2024-02-21T08:19:44;16.48;;;6.55;;
37609;SDS011;23457;51.966;8.230;2024-02-21T08:22:11;21.83;;;6.45;;
37609;SDS011;23457;51.966;8.230;2024-02-21T08:24:38;16.02;;;6.53;;
37609;SDS011;23457;51.966;8.230;2024-02-21T08:27:05;21.33;;;6.32;;
37609;SDS011;23457;51.966;8.230;2024-02-21T08:29:32;18.02;;;6.32;;
37609;SDS011;23457;51.966;8.230;2024-02-21T08:31:59;16.15;;;6.85;;
37609;SDS011;23457;51.966;8.230;2024-02-21T08:34:25;14.43;;;5.72;;
37609;SDS011;23457;51.966;8.230;2024-02-21T08:36:52;13.35;;;5.50;;
37609;SDS011;23457;51.966;8.230;2024-02-21T08:39:19;15.40;;;5.85;;
37609;SDS011;23457;51.966;8.230;2024-02-21T08:41:46;13.85;;;5.15;;
37609;SDS011;23457;51.966;8.230;2024-02-21T08:44:27;12.80;;;5.28;;
37609;SDS011;23457;51.966;8.230;2024-02-21T08:46:54;15.45;;;5.50;;
37609;SDS011;23457;51.966;8.230;2024-02-21T08:49:22;14.20;;;5.53;;
37609;SDS011;23457;51.966;8.230;2024-02-21T08:51:51;19.42;;;5.40;;
37609;SDS011;23457;51.966;8.230;2024-02-21T08:54:17;14.80;;;5.32;;
37609;SDS011;23457;51.966;8.230;2024-02-21T08:56:44;15.65;;;5.43;;
37609;SDS011;23457;51.966;8.230;2024-02-21T08:59:11;14.02;;;4.72;;
37609;SDS011;23457;51.966;8.230;2024-02-21T09:01:37;14.05;;;5.32;;
37609;SDS011;23457;51.966;8.230;2024-02-21T09:04:04;15.88;;;5.05;;
37609;SDS011;23457;51.966;8.230;2024-02-21T09:06:31;14.95;;;5.07;;
37609;SDS011;23457;51.966;8.230;2024-02-21T09:09:00;13.15;;;5.22;;
37609;SDS011;23457;51.966;8.230;2024-02-21T09:11:27;14.05;;;5.18;;
37609;SDS011;23457;51.966;8.230;2024-02-21T09:13:54;13.07;;;4.85;;
37609;SDS011;23457;51.966;8.230;2024-02-21T09:16:22;14.27;;;5.10;;
37609;SDS011;23457;51.966;8.230;2024-02-21T09:18:50;20.88;;;5.78;;
37609;SDS011;23457;51.966;8.230;2024-02-21T09:21:17;17.77;;;6.07;;
37609;SDS011;23457;51.966;8.230;2024-02-21T09:23:43;15.10;;;5.20;;
37609;SDS011;23457;51.966;8.230;2024-02-21T09:26:11;11.35;;;4.72;;
37609;SDS011;23457;51.966;8.230;2024-02-21T09:28:40;10.75;;;4.57;;
37609;SDS011;23457;51.966;8.230;2024-02-21T09:31:07;12.27;;;4.30;;
37609;SDS011;23457;51.966;8.230;2024-02-21T09:33:34;15.00;;;4.90;;
37609;SDS011;23457;51.966;8.230;2024-02-21T09:36:01;11.75;;;5.07;;
37609;SDS011;23457;51.966;8.230;2024-02-21T09:38:27;14.68;;;4.85;;
37609;SDS011;23457;51.966;8.230;2024-02-21T09:41:04;14.45;;;4.40;;
37609;SDS011;23457;51.966;8.230;2024-02-21T09:43:40;9.57;;;4.65;;
37609;SDS011;23457;51.966;8.230;2024-02-21T09:46:08;11.43;;;4.50;;
37609;SDS011;23457;51.966;8.230;2024-02-21T09:48:45;13.68;;;4.85;;
37609;SDS011;23457;51.966;8.230;2024-02-21T09:51:37;9.32;;;4.53;;
37609;SDS011;23457;51.966;8.230;2024-02-21T09:54:07;12.70;;;4.57;;
37609;SDS011;23457;51.966;8.230;2024-02-21T09:56:44;9.98;;;4.47;;
37609;SDS011;23457;51.966;8.230;2024-02-21T10:01:38;14.85;;;4.70;;
37609;SDS011;23457;51.966;8.230;2024-02-21T10:04:05;13.75;;;5.05;;
37609;SDS011;23457;51.966;8.230;2024-02-21T10:06:32;13.55;;;5.47;;
37609;SDS011;23457;51.966;8.230;2024-02-21T10:08:59;9.00;;;5.07;;
37609;SDS011;23457;51.966;8.230;2024-02-21T10:11:26;15.35;;;5.50;;
37609;SDS011;23457;51.966;8.230;2024-02-21T10:16:56;10.52;;;4.70;;
37609;SDS011;23457;51.966;8.230;2024-02-21T10:19:25;9.55;;;4.75;;
37609;SDS011;23457;51.966;8.230;2024-02-21T10:22:02;13.82;;;5.45;;
37609;SDS011;23457;51.966;8.230;2024-02-21T10:24:35;15.75;;;5.40;;
37609;SDS011;23457;51.966;8.230;2024-02-21T10:27:05;15.13;;;5.25;;
37609;SDS011;23457;51.966;8.230;2024-02-21T10:29:38;11.07;;;5.38;;
37609;SDS011;23457;51.966;8.230;2024-02-21T10:32:06;12.88;;;5.70;;
37609;SDS011;23457;51.966;8.230;2024-02-21T10:34:38;13.32;;;5.60;;
37609;SDS011;23457;51.966;8.230;2024-02-21T10:37:07;13.63;;;5.15;;
37609;SDS011;23457;51.966;8.230;2024-02-21T10:39:34;11.10;;;6.45;;
37609;SDS011;23457;51.966;8.230;2024-02-21T10:42:04;12.23;;;5.85;;
37609;SDS011;23457;51.966;8.230;2024-02-21T10:44:32;19.15;;;6.72;;
37609;SDS011;23457;51.966;8.230;2024-02-21T10:47:07;10.52;;;5.43;;
37609;SDS011;23457;51.966;8.230;2024-02-21T10:49:39;12.35;;;5.45;;
37609;SDS011;23457;51.966;8.230;2024-02-21T10:57:14;18.38;;;6.63;;
37609;SDS011;23457;51.966;8.230;2024-02-21T10:59:41;20.13;;;7.10;;
37609;SDS011;23457;51.966;8.230;2024-02-21T11:02:10;17.35;;;6.82;;
37609;SDS011;23457;51.966;8.230;2024-02-21T11:04:38;17.73;;;7.55;;
37609;SDS011;23457;51.966;8.230;2024-02-21T11:07:06;18.73;;;7.82;;
37609;SDS011;23457;51.966;8.230;2024-02-21T11:09:37;13.30;;;6.38;;
37609;SDS011;23457;51.966;8.230;2024-02-21T11:12:05;17.40;;;7.72;;
37609;SDS011;23457;51.966;8.230;2024-02-21T11:14:33;20.98;;;7.60;;
37609;SDS011;23457;51.966;8.230;2024-02-21T11:17:15;17.70;;;8.52;;
37609;SDS011;23457;51.966;8.230;2024-02-21T11:19:43;22.25;;;8.32;;
37609;SDS011;23457;51.966;8.230;2024-02-21T11:22:17;16.45;;;7.93;;
37609;SDS011;23457;51.966;8.230;2024-02-21T11:24:46;20.58;;;8.93;;
37609;SDS011;23457;51.966;8.230;2024-02-21T11:27:14;20.55;;;8.65;;
37609;SDS011;23457;51.966;8.230;2024-02-21T11:32:15;18.50;;;7.93;;
37609;SDS011;23457;51.966;8.230;2024-02-21T11:35:01;22.25;;;8.50;;
37609;SDS011;23457;51.966;8.230;2024-02-21T11:37:32;20.13;;;8.70;;
37609;SDS011;23457;51.966;8.230;2024-02-21T11:40:06;19.10;;;8.88;;
37609;SDS011;23457;51.966;8.230;2024-02-21T11:42:38;21.88;;;9.00;;
37609;SDS011;23457;51.966;8.230;2024-02-21T11:45:06;19.30;;;8.57;;
37609;SDS011;23457;51.966;8.230;2024-02-21T11:47:33;16.05;;;7.22;;
37609;SDS011;23457;51.966;8.230;2024-02-21T11:50:00;14.30;;;7.32;;
37609;SDS011;23457;51.966;8.230;2024-02-21T11:52:27;19.67;;;7.15;;
37609;SDS011;23457;51.966;8.230;2024-02-21T11:54:55;20.60;;;8.50;;
37609;SDS011;23457;51.966;8.230;2024-02-21T11:57:30;19.58;;;6.85;;
37609;SDS011;23457;51.966;8.230;2024-02-21T11:59:58;21.77;;;7.25;;
37609;SDS011;23457;51.966;8.230;2024-02-21T12:02:30;19.73;;;7.22;;
37609;SDS011;23457;51.966;8.230;2024-02-21T12:04:57;18.35;;;7.18;;
37609;SDS011;23457;51.966;8.230;2024-02-21T12:07:24;16.63;;;6.60;;
37609;SDS011;23457;51.966;8.230;2024-02-21T12:09:51;18.77;;;7.72;;
37609;SDS011;23457;51.966;8.230;2024-02-21T12:12:19;22.17;;;7.95;;
37609;SDS011;23457;51.966;8.230;2024-02-21T12:14:47;27.90;;;7.07;;
37609;SDS011;23457;51.966;8.230;2024-02-21T12:17:21;21.45;;;7.40;;
37609;SDS011;23457;51.966;8.230;2024-02-21T12:19:48;22.35;;;6.85;;
37609;SDS011;23457;51.966;8.230;2024-02-21T12:22:18;24.98;;;7.32;;
37609;SDS011;23457;51.966;8.230;2024-02-21T12:24:46;19.05;;;7.45;;
37609;SDS011;23457;51.966;8.230;2024-02-21T12:27:13;23.45;;;8.18;;
37609;SDS011;23457;51.966;8.230;2024-02-21T12:29:40;22.05;;;8.43;;
37609;SDS011;23457;51.966;8.230;2024-02-21T12:32:07;21.65;;;8.65;;
37609;SDS011;23457;51.966;8.230;2024-02-21T12:34:34;19.25;;;8.20;;
37609;SDS011;23457;51.966;8.230;2024-02-21T12:37:18;25.05;;;8.45;;
37609;SDS011;23457;51.966;8.230;2024-02-21T12:39:46;21.73;;;7.78;;
37609;SDS011;23457;51.966;8.230;2024-02-21T12:42:13;25.55;;;8.02;;
37609;SDS011;23457;51.966;8.230;2024-02-21T12:44:40;24.25;;;7.45;;
37609;SDS011;23457;51.966;8.230;2024-02-21T12:47:07;19.98;;;6.65;;
37609;SDS011;23457;51.966;8.230;2024-02-21T12:49:34;24.45;;;7.97;;
37609;SDS011;23457;51.966;8.230;2024-02-21T12:52:02;20.35;;;7.45;;
37609;SDS011;23457;51.966;8.230;2024-02-21T12:54:30;19.52;;;6.82;;
37609;SDS011;23457;51.966;8.230;2024-02-21T12:56:57;21.30;;;8.35;;
37609;SDS011;23457;51.966;8.230;2024-02-21T12:59:24;24.38;;;8.02;;
37609;SDS011;23457;51.966;8.230;2024-02-21T13:01:52;20.90;;;7.38;;
37609;SDS011;23457;51.966;8.230;2024-02-21T13:04:19;17.63;;;7.53;;
37609;SDS011;23457;51.966;8.230;2024-02-21T13:06:48;13.23;;;6.78;;
37609;SDS011;23457;51.966;8.230;2024-02-21T13:09:15;20.35;;;7.65;;
37609;SDS011;23457;51.966;8.230;2024-02-21T13:11:42;23.27;;;8.05;;
37609;SDS011;23457;51.966;8.230;2024-02-21T13:14:11;22.00;;;8.07;;
37609;SDS011;23457;51.966;8.230;2024-02-21T13:16:38;33.60;;;13.48;;
37609;SDS011;23457;51.966;8.230;2024-02-21T13:19:08;23.30;;;8.15;;
37609;SDS011;23457;51.966;8.230;2024-02-21T13:21:36;23.73;;;10.40;;
37609;SDS011;23457;51.966;8.230;2024-02-21T13:24:03;19.85;;;8.35;;
37609;SDS011;23457;51.966;8.230;2024-02-21T13:26:30;28.80;;;11.73;;
37609;SDS011;23457;51.966;8.230;2024-02-21T13:28:57;19.00;;;8.73;;
37609;SDS011;23457;51.966;8.230;2024-02-21T13:31:23;18.25;;;7.28;;
37609;SDS011;23457;51.966;8.230;2024-02-21T13:33:52;17.95;;;7.45;;
37609;SDS011;23457;51.966;8.230;2024-02-21T13:36:19;11.52;;;6.63;;
37609;SDS011;23457;51.966;8.230;2024-02-21T13:38:45;13.25;;;6.13;;
37609;SDS011;23457;51.966;8.230;2024-02-21T13:41:13;19.15;;;7.53;;
37609;SDS011;23457;51.966;8.230;2024-02-21T13:43:40;16.05;;;7.32;;
37609;SDS011;23457;51.966;8.230;2024-02-21T13:46:07;21.50;;;9.82;;
37609;SDS011;23457;51.966;8.230;2024-02-21T13:48:36;34.53;;;12.68;;
37609;SDS011;23457;51.966;8.230;2024-02-21T13:51:03;18.85;;;6.60;;
37609;SDS011;23457;51.966;8.230;2024-02-21T13:53:31;12.60;;;4.38;;
37609;SDS011;23457;51.966;8.230;2024-02-21T13:55:57;18.90;;;7.03;;
37609;SDS011;23457;51.966;8.230;2024-02-21T13:58:24;11.30;;;4.80;;
37609;SDS011;23457;51.966;8.230;2024-02-21T14:00:52;13.02;;;3.85;;
37609;SDS011;23457;51.966;8.230;2024-02-21T14:03:20;13.70;;;4.22;;
37609;SDS011;23457;51.966;8.230;2024-02-21T14:05:47;11.00;;;3.78;;
37609;SDS011;23457;51.966;8.230;2024-02-21T14:08:15;15.98;;;3.95;;
37609;SDS011;23457;51.966;8.230;2024-02-21T14:10:42;13.85;;;3.47;;
37609;SDS011;23457;51.966;8.230;2024-02-21T14:13:09;10.43;;;3.40;;
37609;SDS011;23457;51.966;8.230;2024-02-21T14:15:36;10.77;;;3.80;;
37609;SDS011;23457;51.966;8.230;2024-02-21T14:18:04;16.13;;;3.75;;
37609;SDS011;23457;51.966;8.230;2024-02-21T14:20:35;10.00;;;3.45;;
37609;SDS011;23457;51.966;8.230;2024-02-21T14:23:02;12.57;;;3.80;;
37609;SDS011;23457;51.966;8.230;2024-02-21T14:25:29;13.05;;;4.07;;
37609;SDS011;23457;51.966;8.230;2024-02-21T14:27:56;9.07;;;3.13;;
37609;SDS011;23457;51.966;8.230;2024-02-21T14:30:23;15.98;;;3.45;;
37609;SDS011;23457;51.966;8.230;2024-02-21T14:32:49;9.98;;;3.47;;
37609;SDS011;23457;51.966;8.230;2024-02-21T14:35:17;13.07;;;3.58;;
37609;SDS011;23457;51.966;8.230;2024-02-21T14:37:44;9.52;;;3.25;;
37609;SDS011;23457;51.966;8.230;2024-02-21T14:40:12;13.52;;;3.30;;
37609;SDS011;23457;51.966;8.230;2024-02-21T14:42:38;14.52;;;3.95;;
37609;SDS011;23457;51.966;8.230;2024-02-21T14:45:05;10.07;;;3.75;;
37609;SDS011;23457;51.966;8.230;2024-02-21T14:47:32;13.18;;;3.40;;
37609;SDS011;23457;51.966;8.230;2024-02-21T14:50:01;11.75;;;3.67;;